Time;durP1;ratioP1;P1;durP2;ratioP2;P2;SDS_P1;SDS_P2;PMS_P1;PMS_P2;Temp;Humidity;BMP_temperature;BMP_pressure;BME280_temperature;BME280_humidity;BME280_pressure;Samples;Min_cycle;Max_cycle;Signal;HPM_P1;HPM_P2
2023/10/04 00:00:21;;;;;;;3.92;1.73;;;11.90;99.90;;;;;;5051685;28;20017;-89
2023/10/04 00:02:54;;;;;;;8.95;2.22;;;11.90;99.90;;;;;;5033747;28;20085;-85
2023/10/04 00:05:21;;;;;;;7.05;2.25;;;11.90;99.90;;;;;;5032389;28;20496;-87
2023/10/04 00:07:48;;;;;;;3.78;1.88;;;11.90;99.90;;;;;;5051929;28;20044;-84
2023/10/04 00:10:14;;;;;;;6.28;2.20;;;11.90;99.90;;;;;;5033862;28;20021;-83
2023/10/04 00:12:42;;;;;;;4.50;1.70;;;11.90;99.90;;;;;;5032505;28;20016;-83
2023/10/04 00:15:09;;;;;;;5.82;2.45;;;11.90;99.90;;;;;;5052125;28;20009;-85
2023/10/04 00:17:36;;;;;;;3.65;1.30;;;11.90;99.90;;;;;;5035210;28;20056;-86
2023/10/04 00:20:04;;;;;;;7.68;1.83;;;11.80;99.90;;;;;;5035174;28;20040;-85
2023/10/04 00:22:29;;;;;;;6.53;2.17;;;11.80;99.90;;;;;;5034938;28;20619;-86
2023/10/04 00:24:55;;;;;;;6.10;1.67;;;11.80;99.90;;;;;;5032866;28;20013;-82
2023/10/04 00:27:20;;;;;;;7.35;2.33;;;11.80;99.90;;;;;;5023785;28;20033;-86
2023/10/04 00:29:46;;;;;;;8.75;2.03;;;11.90;99.90;;;;;;5031066;28;20080;-84
2023/10/04 00:32:12;;;;;;;7.70;2.10;;;11.90;99.90;;;;;;5029385;28;20744;-84
2023/10/04 00:34:40;;;;;;;6.25;2.00;;;11.90;99.90;;;;;;5049939;28;20009;-86
2023/10/04 00:37:07;;;;;;;2.60;1.27;;;11.90;99.90;;;;;;5025054;28;20497;-86
2023/10/04 00:39:34;;;;;;;8.95;2.20;;;11.80;99.90;;;;;;5033661;28;20017;-83
2023/10/04 00:42:00;;;;;;;7.75;2.55;;;11.80;99.90;;;;;;5032732;28;20025;-85
2023/10/04 00:44:26;;;;;;;4.45;1.88;;;11.80;99.90;;;;;;5031575;28;20025;-83
2023/10/04 00:46:52;;;;;;;4.35;1.95;;;11.80;99.90;;;;;;5040068;28;20025;-84
2023/10/04 00:49:18;;;;;;;4.05;1.80;;;11.90;99.90;;;;;;5029431;28;20017;-85
2023/10/04 00:51:44;;;;;;;6.88;1.90;;;11.90;99.90;;;;;;5035535;28;20500;-84
2023/10/04 00:54:10;;;;;;;7.65;1.70;;;11.90;99.90;;;;;;5052290;28;20021;-87
2023/10/04 00:56:36;;;;;;;6.05;1.83;;;11.90;99.90;;;;;;5051232;28;20071;-87
2023/10/04 00:59:05;;;;;;;3.67;1.48;;;11.90;99.90;;;;;;5033297;28;20402;-85
2023/10/04 01:01:31;;;;;;;5.95;1.85;;;11.90;99.90;;;;;;5044436;28;20021;-83
2023/10/04 01:04:00;;;;;;;4.70;1.83;;;11.90;99.90;;;;;;5029074;28;20385;-85
2023/10/04 01:06:26;;;;;;;7.40;1.77;;;11.90;99.90;;;;;;5056505;28;20075;-85
2023/10/04 01:08:52;;;;;;;4.70;1.83;;;12.00;99.90;;;;;;5059551;28;20033;-85
2023/10/04 01:11:17;;;;;;;2.40;1.75;;;12.00;99.90;;;;;;5055627;28;20088;-86
2023/10/04 01:13:43;;;;;;;7.22;2.03;;;12.00;99.90;;;;;;5040988;28;20052;-88
2023/10/04 01:16:09;;;;;;;4.28;1.73;;;12.00;99.90;;;;;;5034506;28;20132;-88
2023/10/04 01:18:39;;;;;;;4.13;1.42;;;12.00;99.90;;;;;;5034528;28;20043;-87
2023/10/04 01:21:05;;;;;;;3.88;1.70;;;12.00;99.90;;;;;;5031405;28;20037;-87
2023/10/04 01:23:31;;;;;;;6.82;1.63;;;12.00;99.90;;;;;;5046546;28;20010;-85
2023/10/04 01:25:57;;;;;;;5.13;1.40;;;12.00;99.90;;;;;;5043307;28;20091;-89
2023/10/04 01:28:28;;;;;;;6.03;1.60;;;12.00;99.90;;;;;;5050419;28;20025;-86
2023/10/04 01:30:55;;;;;;;4.35;1.50;;;12.00;99.90;;;;;;5051623;28;20092;-86
2023/10/04 01:33:21;;;;;;;4.45;1.38;;;11.90;99.90;;;;;;5042501;28;20025;-86
2023/10/04 01:35:49;;;;;;;4.90;1.73;;;12.00;99.90;;;;;;5033948;28;20104;-87
2023/10/04 01:38:15;;;;;;;3.55;1.27;;;11.90;99.90;;;;;;5051629;28;20020;-86
2023/10/04 01:40:43;;;;;;;2.65;1.60;;;11.90;99.90;;;;;;5029627;28;21239;-86
2023/10/04 01:43:15;;;;;;;6.82;2.55;;;11.90;99.90;;;;;;5031497;28;20079;-88
2023/10/04 01:45:53;;;;;;;5.43;1.83;;;12.00;99.90;;;;;;5030142;28;20029;-85
2023/10/04 01:48:19;;;;;;;3.85;1.35;;;11.90;99.90;;;;;;5050185;28;20074;-86
2023/10/04 01:50:51;;;;;;;6.43;1.80;;;12.00;99.90;;;;;;5035373;28;20104;-85
2023/10/04 01:53:18;;;;;;;4.88;1.13;;;11.90;99.90;;;;;;5034191;28;20013;-88
2023/10/04 01:55:43;;;;;;;4.13;1.75;;;11.90;99.90;;;;;;5032733;28;20017;-89
2023/10/04 01:58:10;;;;;;;6.05;1.35;;;11.90;99.90;;;;;;5034198;28;20111;-86
2023/10/04 02:00:36;;;;;;;7.63;1.83;;;12.00;99.90;;;;;;5044345;28;20024;-87
2023/10/04 02:03:02;;;;;;;4.38;1.42;;;11.90;99.90;;;;;;5031987;28;20278;-86
2023/10/04 02:05:31;;;;;;;3.38;1.73;;;11.90;99.90;;;;;;5029775;28;20036;-86
2023/10/04 02:07:58;;;;;;;4.05;1.77;;;11.90;99.90;;;;;;5026308;28;20033;-84
2023/10/04 02:10:24;;;;;;;5.22;1.90;;;11.90;99.90;;;;;;5029033;28;20017;-88
2023/10/04 02:12:56;;;;;;;3.33;1.55;;;11.90;99.90;;;;;;5039806;28;20098;-87
2023/10/04 02:15:22;;;;;;;4.18;1.40;;;11.90;99.90;;;;;;5042701;28;20036;-86
2023/10/04 02:17:49;;;;;;;4.35;1.20;;;11.90;99.90;;;;;;5031469;28;20013;-85
2023/10/04 02:20:23;;;;;;;5.18;1.52;;;11.90;99.90;;;;;;5047381;28;20074;-87
2023/10/04 02:22:50;;;;;;;5.85;1.90;;;11.90;99.90;;;;;;5027783;28;20018;-87
2023/10/04 02:25:17;;;;;;;3.17;1.30;;;11.90;99.90;;;;;;5030703;28;20027;-86
2023/10/04 02:27:44;;;;;;;5.22;1.58;;;11.90;99.90;;;;;;5048821;28;20043;-86
2023/10/04 02:30:15;;;;;;;6.57;1.60;;;11.80;99.90;;;;;;5032134;28;20358;-88
2023/10/04 02:32:42;;;;;;;5.78;1.67;;;11.90;99.90;;;;;;5032165;28;20020;-85
2023/10/04 02:35:10;;;;;;;4.25;1.20;;;11.80;99.90;;;;;;5036191;28;20431;-85
2023/10/04 02:37:36;;;;;;;4.10;2.03;;;11.80;99.90;;;;;;5030464;28;20059;-85
2023/10/04 02:40:14;;;;;;;7.03;1.85;;;11.80;99.90;;;;;;5031827;28;20473;-87
2023/10/04 02:42:41;;;;;;;5.70;2.13;;;11.80;99.90;;;;;;5048793;28;20564;-85
2023/10/04 02:45:12;;;;;;;6.35;1.73;;;11.80;99.90;;;;;;5032040;28;20021;-83
2023/10/04 02:47:38;;;;;;;2.35;1.27;;;11.80;99.90;;;;;;5035619;28;20033;-84
2023/10/04 02:50:07;;;;;;;4.70;1.52;;;11.80;99.90;;;;;;5049747;28;20028;-85
2023/10/04 02:52:35;;;;;;;4.03;1.30;;;11.80;99.90;;;;;;5043608;28;20358;-85
2023/10/04 02:55:01;;;;;;;6.38;2.20;;;11.80;99.90;;;;;;5043806;28;20025;-90
2023/10/04 02:57:29;;;;;;;5.47;1.92;;;11.80;99.90;;;;;;5035169;28;20025;-85
2023/10/04 02:59:55;;;;;;;5.43;1.88;;;11.80;99.90;;;;;;5028927;28;20041;-86
2023/10/04 03:02:21;;;;;;;3.35;1.67;;;11.80;99.90;;;;;;5049745;28;20013;-84
2023/10/04 03:04:50;;;;;;;4.88;1.70;;;11.80;99.90;;;;;;5032370;28;20444;-84
2023/10/04 03:07:15;;;;;;;4.93;1.90;;;11.80;99.90;;;;;;5032431;28;20028;-84
2023/10/04 03:09:42;;;;;;;7.72;1.92;;;11.70;99.90;;;;;;5049683;28;20026;-83
2023/10/04 03:12:10;;;;;;;6.97;1.80;;;11.70;99.90;;;;;;5033364;28;20029;-86
2023/10/04 03:14:36;;;;;;;2.72;1.50;;;11.70;99.90;;;;;;5031783;28;20021;-85
2023/10/04 03:17:02;;;;;;;3.35;1.30;;;11.80;99.90;;;;;;5050294;28;20027;-86
2023/10/04 03:19:28;;;;;;;4.85;1.67;;;11.70;99.90;;;;;;5031966;28;20495;-83
2023/10/04 03:21:54;;;;;;;7.03;1.30;;;11.80;99.90;;;;;;5032630;28;20024;-86
2023/10/04 03:24:19;;;;;;;7.18;1.63;;;11.70;99.90;;;;;;5048682;28;20017;-85
2023/10/04 03:26:45;;;;;;;6.65;1.50;;;11.70;99.90;;;;;;5032541;28;20325;-83
2023/10/04 03:29:15;;;;;;;7.85;2.58;;;11.70;99.90;;;;;;5032169;28;20020;-84
2023/10/04 03:31:40;;;;;;;5.30;1.85;;;11.70;99.90;;;;;;5031737;28;20431;-84
2023/10/04 03:34:07;;;;;;;4.75;1.48;;;11.70;99.90;;;;;;5032664;28;20028;-85
2023/10/04 03:36:39;;;;;;;5.00;2.17;;;11.70;99.90;;;;;;5032364;28;20388;-83
2023/10/04 03:39:04;;;;;;;5.13;1.83;;;11.70;99.90;;;;;;5032068;28;20021;-85
2023/10/04 03:41:30;;;;;;;3.47;1.63;;;11.70;99.90;;;;;;5032614;28;20027;-85
2023/10/04 03:43:55;;;;;;;3.80;1.27;;;11.70;99.90;;;;;;5028586;28;20017;-86
2023/10/04 03:46:21;;;;;;;3.20;1.70;;;11.70;99.90;;;;;;5053521;28;20063;-83
2023/10/04 03:48:48;;;;;;;3.88;1.60;;;11.70;99.90;;;;;;5028697;28;20028;-83
2023/10/04 03:51:19;;;;;;;4.60;1.50;;;11.70;99.90;;;;;;5035818;28;20035;-83
2023/10/04 03:53:46;;;;;;;5.68;2.15;;;11.70;99.90;;;;;;5054274;28;20052;-82
2023/10/04 03:56:14;;;;;;;8.63;2.03;;;11.70;99.90;;;;;;5031733;28;20025;-83
2023/10/04 03:58:40;;;;;;;5.45;2.08;;;11.70;99.90;;;;;;5029363;28;20020;-84
2023/10/04 04:01:07;;;;;;;4.72;1.77;;;11.70;99.90;;;;;;5035327;28;20024;-83
2023/10/04 04:03:32;;;;;;;5.60;1.90;;;11.70;99.90;;;;;;5052612;28;20056;-83
2023/10/04 04:05:58;;;;;;;4.22;1.75;;;11.70;99.90;;;;;;5031447;28;20049;-83
2023/10/04 04:08:23;;;;;;;9.77;2.38;;;11.70;99.90;;;;;;5031679;28;20112;-82
2023/10/04 04:10:50;;;;;;;5.05;1.60;;;11.70;99.90;;;;;;5030393;28;20132;-84
2023/10/04 04:13:16;;;;;;;6.00;2.00;;;11.70;99.90;;;;;;5032157;28;20025;-84
2023/10/04 04:15:41;;;;;;;3.80;2.15;;;11.70;99.90;;;;;;5025666;28;20025;-83
2023/10/04 04:18:13;;;;;;;10.60;2.83;;;11.70;99.90;;;;;;5029633;28;20468;-84
2023/10/04 04:20:41;;;;;;;6.05;1.50;;;11.60;99.90;;;;;;5029538;28;20070;-84
2023/10/04 04:23:08;;;;;;;5.10;1.55;;;11.70;99.90;;;;;;5029629;28;20021;-83
2023/10/04 04:25:34;;;;;;;4.20;1.63;;;11.60;99.90;;;;;;5030109;28;20028;-84
2023/10/04 04:28:01;;;;;;;7.10;2.13;;;11.60;99.90;;;;;;5043342;28;20021;-85
2023/10/04 04:30:35;;;;;;;7.65;2.20;;;11.60;99.90;;;;;;5027279;28;20032;-85
2023/10/04 04:33:07;;;;;;;4.47;1.35;;;11.70;99.90;;;;;;5031427;28;20021;-85
2023/10/04 04:38:24;;;;;;;5.93;1.77;;;11.70;99.90;;;;;;5048844;28;20851;-83
2023/10/04 04:40:58;;;;;;;6.55;1.45;;;11.70;99.90;;;;;;5024262;28;20053;-83
2023/10/04 04:43:37;;;;;;;9.00;1.77;;;11.70;99.90;;;;;;5051009;28;20024;-83
2023/10/04 04:46:08;;;;;;;5.07;1.48;;;11.70;99.90;;;;;;5048548;28;20031;-83
2023/10/04 04:48:37;;;;;;;9.40;1.95;;;11.70;99.90;;;;;;5026081;28;20009;-84
2023/10/04 04:51:10;;;;;;;4.25;1.65;;;11.80;99.90;;;;;;5049735;28;20982;-82
2023/10/04 04:53:40;;;;;;;5.47;2.00;;;11.70;99.90;;;;;;5033578;28;20124;-83
2023/10/04 04:56:15;;;;;;;3.97;1.58;;;11.80;99.90;;;;;;5031560;28;20083;-83
2023/10/04 04:58:42;;;;;;;8.65;1.70;;;11.70;99.90;;;;;;5027974;28;20496;-84
2023/10/04 05:01:11;;;;;;;6.28;2.05;;;11.70;99.90;;;;;;5051664;28;20032;-83
2023/10/04 05:03:41;;;;;;;5.82;2.15;;;11.80;99.90;;;;;;5028642;28;20029;-83
2023/10/04 05:06:07;;;;;;;11.05;2.40;;;11.80;99.90;;;;;;5050010;28;20378;-83
2023/10/04 05:08:32;;;;;;;4.78;1.58;;;11.70;99.90;;;;;;5030984;28;20068;-83
2023/10/04 05:10:59;;;;;;;8.55;2.17;;;11.70;99.90;;;;;;5047347;28;20017;-84
2023/10/04 05:13:25;;;;;;;6.40;2.75;;;11.80;99.90;;;;;;5051633;28;20375;-84
2023/10/04 05:15:50;;;;;;;5.22;1.75;;;11.70;99.90;;;;;;5029090;28;20143;-84
2023/10/04 05:18:17;;;;;;;9.55;2.47;;;11.80;99.90;;;;;;5029469;28;20377;-83
2023/10/04 05:20:43;;;;;;;6.80;2.20;;;11.80;99.90;;;;;;5029259;28;20113;-85
2023/10/04 05:23:09;;;;;;;5.35;2.42;;;11.80;99.90;;;;;;5055114;28;20025;-86
2023/10/04 05:25:36;;;;;;;6.72;2.22;;;11.80;99.90;;;;;;5049634;28;20035;-87
2023/10/04 05:28:09;;;;;;;6.38;2.15;;;11.80;99.90;;;;;;5033386;28;20033;-86
2023/10/04 05:30:35;;;;;;;6.93;2.30;;;11.80;99.90;;;;;;5029748;28;20029;-85
2023/10/04 05:33:01;;;;;;;6.97;2.33;;;11.80;99.90;;;;;;5049586;28;20104;-86
2023/10/04 05:35:27;;;;;;;5.80;2.13;;;11.80;99.90;;;;;;5028781;28;20416;-88
2023/10/04 05:37:53;;;;;;;5.32;2.03;;;11.70;99.90;;;;;;5029126;28;20079;-85
2023/10/04 05:40:27;;;;;;;4.80;2.22;;;11.70;99.90;;;;;;5033029;28;20449;-85
2023/10/04 05:42:54;;;;;;;5.40;2.25;;;11.70;99.90;;;;;;5030889;28;20036;-85
2023/10/04 05:45:23;;;;;;;8.57;2.25;;;11.70;99.90;;;;;;5032826;28;20143;-85
2023/10/04 05:47:52;;;;;;;3.60;1.75;;;11.70;99.90;;;;;;5031432;28;20056;-86
2023/10/04 05:50:21;;;;;;;6.40;1.90;;;11.70;99.90;;;;;;5031860;28;20017;-86
2023/10/04 05:52:48;;;;;;;5.63;1.48;;;11.60;99.90;;;;;;5030885;28;20028;-89
2023/10/04 05:55:13;;;;;;;8.55;2.40;;;11.60;99.90;;;;;;5032899;28;20021;-86
2023/10/04 05:57:39;;;;;;;4.72;2.35;;;11.60;99.90;;;;;;5033357;28;20031;-87
2023/10/04 06:00:23;;;;;;;8.80;2.20;;;11.70;99.90;;;;;;5029415;28;20017;-87
2023/10/04 06:02:53;;;;;;;4.40;1.92;;;11.70;99.90;;;;;;5050939;28;20031;-88
2023/10/04 06:05:23;;;;;;;6.50;1.67;;;11.70;99.90;;;;;;5047001;28;20049;-86
2023/10/04 06:07:51;;;;;;;6.95;2.00;;;11.70;99.90;;;;;;5047934;28;20036;-86
2023/10/04 06:10:17;;;;;;;6.68;1.88;;;11.70;99.90;;;;;;5032115;28;20017;-86
2023/10/04 06:12:44;;;;;;;5.63;1.65;;;11.80;99.90;;;;;;5031302;28;20024;-89
2023/10/04 06:15:11;;;;;;;6.60;2.20;;;11.70;99.90;;;;;;5047420;28;20400;-86
2023/10/04 06:17:42;;;;;;;7.50;2.03;;;11.70;99.90;;;;;;5030089;28;20544;-86
2023/10/04 06:20:23;;;;;;;2.72;1.20;;;11.70;99.90;;;;;;5042426;28;20068;-86
2023/10/04 06:22:55;;;;;;;6.55;2.38;;;11.70;99.90;;;;;;5031823;28;20052;-85
2023/10/04 06:25:30;;;;;;;5.78;1.92;;;11.70;99.90;;;;;;5046399;28;20058;-86
2023/10/04 06:27:58;;;;;;;5.90;1.63;;;11.80;99.90;;;;;;5030653;28;20427;-85
2023/10/04 06:30:31;;;;;;;8.05;1.85;;;11.80;99.90;;;;;;5030643;28;20665;-86
2023/10/04 06:33:11;;;;;;;4.25;1.95;;;11.80;99.90;;;;;;5048146;28;20107;-86
2023/10/04 06:35:46;;;;;;;3.50;1.70;;;11.90;99.90;;;;;;5050230;28;20035;-85
2023/10/04 06:38:15;;;;;;;8.68;1.85;;;11.90;99.90;;;;;;5032112;28;20151;-87
2023/10/04 06:40:52;;;;;;;5.82;1.75;;;11.90;99.90;;;;;;5033300;28;20017;-86
2023/10/04 06:43:39;;;;;;;5.93;1.58;;;12.00;99.90;;;;;;5047113;28;20053;-88
2023/10/04 06:46:05;;;;;;;6.68;1.80;;;12.00;99.90;;;;;;5050801;28;20021;-86
2023/10/04 06:51:46;;;;;;;8.05;1.90;;;12.00;99.90;;;;;;4983829;28;20048;-86
2023/10/04 06:54:23;;;;;;;5.88;1.85;;;12.00;99.90;;;;;;5041838;28;20040;-85
2023/10/04 06:56:55;;;;;;;7.72;2.78;;;12.10;99.90;;;;;;5032426;28;20025;-86
2023/10/04 06:59:33;;;;;;;5.65;1.88;;;12.10;99.90;;;;;;5028898;28;20013;-89
2023/10/04 07:02:02;;;;;;;5.32;1.70;;;12.10;99.90;;;;;;5030465;28;20025;-88
2023/10/04 07:04:33;;;;;;;7.40;2.40;;;12.10;99.90;;;;;;5030656;28;20028;-86
2023/10/04 07:07:04;;;;;;;5.43;2.25;;;12.10;99.90;;;;;;5031059;28;20042;-86
2023/10/04 07:09:33;;;;;;;8.85;2.58;;;12.10;99.90;;;;;;5049336;28;20044;-86
2023/10/04 07:11:58;;;;;;;5.15;1.83;;;12.10;99.90;;;;;;5049317;28;20033;-85
2023/10/04 07:14:24;;;;;;;5.72;1.67;;;12.20;99.90;;;;;;5048783;28;20050;-85
2023/10/04 07:16:51;;;;;;;9.77;3.05;;;12.20;99.90;;;;;;5048501;28;20013;-89
2023/10/04 07:19:17;;;;;;;5.40;1.63;;;12.20;99.90;;;;;;5030724;28;20389;-86
2023/10/04 07:21:42;;;;;;;4.70;2.30;;;12.20;99.90;;;;;;5034342;28;20020;-86
2023/10/04 07:24:08;;;;;;;7.47;1.80;;;12.30;99.90;;;;;;5052770;28;20017;-86
2023/10/04 07:26:35;;;;;;;6.25;2.17;;;12.30;99.90;;;;;;5035171;28;20017;-85
2023/10/04 07:29:02;;;;;;;7.45;1.92;;;12.30;99.90;;;;;;5051665;28;20080;-85
2023/10/04 07:31:28;;;;;;;9.35;1.75;;;12.30;99.90;;;;;;5032967;28;20083;-86
2023/10/04 07:33:53;;;;;;;5.28;1.95;;;12.40;99.90;;;;;;5034017;28;20033;-87
2023/10/04 07:36:19;;;;;;;4.80;1.73;;;12.40;99.90;;;;;;5034628;28;20021;-85
2023/10/04 07:38:46;;;;;;;4.88;1.70;;;12.40;99.90;;;;;;5036359;28;20025;-85
2023/10/04 07:41:11;;;;;;;7.82;2.65;;;12.50;99.90;;;;;;5035431;28;20014;-85
2023/10/04 07:43:37;;;;;;;7.03;1.70;;;12.40;99.90;;;;;;5037145;28;20025;-85
2023/10/04 07:46:04;;;;;;;5.50;2.03;;;12.40;99.90;;;;;;5035119;28;20055;-86
2023/10/04 07:48:29;;;;;;;5.78;1.90;;;12.50;99.90;;;;;;5035953;28;20087;-87
2023/10/04 07:50:55;;;;;;;5.80;1.67;;;12.50;99.90;;;;;;5055690;28;20389;-87
2023/10/04 07:53:21;;;;;;;6.88;1.50;;;12.50;99.90;;;;;;5037505;28;20056;-86
2023/10/04 07:55:49;;;;;;;9.88;2.30;;;12.60;99.90;;;;;;5037446;28;20059;-86
2023/10/04 07:58:15;;;;;;;4.60;2.13;;;12.60;99.90;;;;;;5036216;28;20025;-86
2023/10/04 08:00:41;;;;;;;6.40;2.03;;;12.60;99.90;;;;;;5054399;28;20558;-86
2023/10/04 08:03:08;;;;;;;3.03;1.60;;;12.70;99.90;;;;;;5036168;28;20021;-86
2023/10/04 08:05:34;;;;;;;8.45;2.88;;;12.70;99.90;;;;;;5034939;28;20026;-86
2023/10/04 08:08:04;;;;;;;3.88;1.83;;;12.70;99.90;;;;;;5034609;28;20112;-86
2023/10/04 08:10:34;;;;;;;9.60;2.53;;;12.80;99.90;;;;;;5052041;28;20046;-86
2023/10/04 08:13:00;;;;;;;7.60;2.03;;;12.90;99.90;;;;;;5034129;28;20139;-86
2023/10/04 08:15:28;;;;;;;8.13;2.20;;;13.00;99.90;;;;;;5034483;28;20021;-85
2023/10/04 08:17:55;;;;;;;8.73;2.30;;;13.10;99.90;;;;;;5051715;28;20557;-89
2023/10/04 08:20:23;;;;;;;4.07;1.45;;;13.20;99.90;;;;;;5032813;28;20074;-85
2023/10/04 08:22:48;;;;;;;8.77;2.33;;;13.20;99.90;;;;;;5042323;28;20045;-87
2023/10/04 08:25:19;;;;;;;8.45;2.08;;;13.20;99.90;;;;;;5034307;28;20632;-85
2023/10/04 08:27:45;;;;;;;7.82;2.08;;;13.30;99.90;;;;;;5034230;28;20420;-89
2023/10/04 08:30:12;;;;;;;6.57;2.08;;;13.30;99.90;;;;;;5048897;28;20174;-86
2023/10/04 08:32:41;;;;;;;4.00;2.25;;;13.30;99.90;;;;;;5034954;28;20049;-85
2023/10/04 08:35:08;;;;;;;10.02;2.90;;;13.40;99.90;;;;;;5050412;28;20025;-84
2023/10/04 08:37:34;;;;;;;7.80;2.47;;;13.40;99.90;;;;;;5063611;28;20021;-83
2023/10/04 08:40:00;;;;;;;8.30;2.95;;;13.40;99.90;;;;;;5038043;28;20012;-90
2023/10/04 08:42:25;;;;;;;7.82;3.08;;;13.50;99.90;;;;;;5057571;28;20040;-88
2023/10/04 08:44:52;;;;;;;15.05;3.00;;;13.50;99.90;;;;;;5038979;28;20021;-86
2023/10/04 08:47:19;;;;;;;6.75;2.20;;;13.60;99.90;;;;;;5036214;28;20440;-86
2023/10/04 08:49:54;;;;;;;10.45;2.67;;;13.60;99.90;;;;;;5049159;28;20075;-85
2023/10/04 08:52:26;;;;;;;8.93;2.67;;;13.70;99.90;;;;;;5051497;28;20393;-84
2023/10/04 08:54:58;;;;;;;8.73;2.00;;;13.70;99.90;;;;;;5045302;28;20441;-87
2023/10/04 08:57:25;;;;;;;12.75;2.97;;;13.80;99.90;;;;;;5048867;28;20017;-84
2023/10/04 08:59:51;;;;;;;6.47;1.77;;;13.80;99.90;;;;;;5048940;28;20024;-84
2023/10/04 09:02:20;;;;;;;4.50;2.08;;;13.90;99.90;;;;;;5053483;28;20029;-86
2023/10/04 09:04:46;;;;;;;8.85;2.35;;;13.90;99.90;;;;;;5036069;28;20028;-85
2023/10/04 09:07:12;;;;;;;9.23;2.60;;;14.00;99.90;;;;;;5035403;28;20040;-89
2023/10/04 09:09:40;;;;;;;8.27;2.33;;;14.00;99.90;;;;;;5052434;28;20025;-84
2023/10/04 09:12:07;;;;;;;7.82;2.42;;;14.10;99.90;;;;;;5033248;28;20040;-86
2023/10/04 09:14:33;;;;;;;9.45;2.10;;;14.20;99.90;;;;;;5032755;28;20025;-86
2023/10/04 09:17:14;;;;;;;7.07;2.35;;;14.30;99.90;;;;;;5033029;28;20032;-85
2023/10/04 09:19:41;;;;;;;7.45;2.75;;;14.30;99.90;;;;;;5034353;28;20044;-85
2023/10/04 09:22:08;;;;;;;7.18;1.98;;;14.30;99.90;;;;;;5032648;28;20075;-85
2023/10/04 09:24:56;;;;;;;8.20;2.75;;;14.40;99.90;;;;;;5051301;28;20417;-84
2023/10/04 09:27:22;;;;;;;6.70;1.77;;;14.40;99.90;;;;;;5051507;28;20025;-83
2023/10/04 09:29:53;;;;;;;7.25;2.60;;;14.50;99.90;;;;;;5033750;28;20024;-85
2023/10/04 09:32:38;;;;;;;8.30;2.40;;;14.50;99.90;;;;;;5050815;28;20511;-87
2023/10/04 09:35:05;;;;;;;4.65;1.77;;;14.60;99.90;;;;;;5050232;28;20033;-84
2023/10/04 09:37:31;;;;;;;9.30;1.85;;;14.60;99.90;;;;;;5052860;28;20025;-84
2023/10/04 09:40:08;;;;;;;12.98;2.22;;;14.60;99.90;;;;;;5034079;28;20479;-84
2023/10/04 09:42:46;;;;;;;;;;;14.70;99.90;;;;;;5032793;28;20024;-85
2023/10/04 09:45:12;;;;;;;6.53;2.00;;;14.70;99.90;;;;;;5033340;28;20253;-85
2023/10/04 09:47:38;;;;;;;8.73;2.40;;;14.70;99.90;;;;;;5032436;28;20027;-86
2023/10/04 09:50:12;;;;;;;9.45;1.88;;;14.80;99.90;;;;;;5050030;28;20057;-84
2023/10/04 09:52:38;;;;;;;3.97;1.83;;;14.80;99.90;;;;;;5052042;28;20562;-84
2023/10/04 09:55:08;;;;;;;3.58;1.60;;;14.80;99.90;;;;;;5034577;28;20124;-85
2023/10/04 09:57:35;;;;;;;6.32;2.15;;;14.90;99.90;;;;;;5034315;28;20378;-85
2023/10/04 10:00:05;;;;;;;6.85;2.20;;;14.90;99.90;;;;;;5034924;28;20558;-85
2023/10/04 10:02:36;;;;;;;7.60;2.17;;;15.00;99.90;;;;;;5052888;28;20423;-86
2023/10/04 10:05:06;;;;;;;4.53;1.80;;;15.00;99.90;;;;;;5033959;28;20365;-84
2023/10/04 10:07:33;;;;;;;8.60;2.25;;;15.00;99.90;;;;;;5029997;28;20085;-84
2023/10/04 10:10:10;;;;;;;4.80;1.73;;;15.00;99.90;;;;;;5048299;28;20028;-85
2023/10/04 10:12:36;;;;;;;10.45;2.38;;;15.00;99.90;;;;;;5032291;28;20024;-84
2023/10/04 10:15:04;;;;;;;6.90;2.28;;;15.00;99.90;;;;;;5058162;28;20029;-85
2023/10/04 10:17:31;;;;;;;7.13;2.33;;;15.00;99.90;;;;;;5032114;28;20055;-85
2023/10/04 10:19:57;;;;;;;6.22;2.15;;;15.10;99.90;;;;;;5034854;28;20025;-85
2023/10/04 10:22:23;;;;;;;10.27;2.33;;;15.10;99.90;;;;;;5035071;28;20091;-85
2023/10/04 10:25:13;;;;;;;5.72;2.22;;;15.20;99.90;;;;;;5033924;28;20021;-85
2023/10/04 10:27:38;;;;;;;9.57;2.03;;;15.20;99.90;;;;;;5033357;28;20033;-86
2023/10/04 10:30:16;;;;;;;6.75;1.90;;;15.10;99.90;;;;;;5034346;28;20027;-84
2023/10/04 10:32:55;;;;;;;4.82;1.73;;;15.10;99.90;;;;;;5034493;28;20124;-85
2023/10/04 10:35:48;;;;;;;13.75;2.80;;;15.10;99.90;;;;;;5037019;28;20043;-86
2023/10/04 10:38:43;;;;;;;3.95;1.80;;;15.10;99.90;;;;;;5033758;28;20051;-85
2023/10/04 10:41:31;;;;;;;4.80;2.03;;;15.20;99.90;;;;;;5052310;28;20040;-85
2023/10/04 10:44:19;;;;;;;5.55;2.20;;;15.30;99.90;;;;;;5048130;28;20032;-85
2023/10/04 10:46:55;;;;;;;11.13;2.58;;;15.30;99.90;;;;;;5032296;28;20024;-85
2023/10/04 10:49:40;;;;;;;10.98;2.92;;;15.40;99.90;;;;;;5031961;28;20013;-84
2023/10/04 10:52:39;;;;;;;6.22;2.50;;;15.50;99.90;;;;;;5033506;28;20074;-85
2023/10/04 10:55:07;;;;;;;5.50;2.05;;;15.50;99.90;;;;;;5042598;28;20033;-87
2023/10/04 10:57:37;;;;;;;9.00;2.67;;;15.50;99.90;;;;;;5057573;28;20390;-86
2023/10/04 11:00:19;;;;;;;12.80;3.08;;;15.50;99.90;;;;;;5037105;28;20101;-84
2023/10/04 11:02:54;;;;;;;14.07;2.88;;;15.60;99.90;;;;;;5035319;28;20486;-84
2023/10/04 11:05:21;;;;;;;5.32;2.03;;;15.50;99.90;;;;;;5034573;28;20043;-84
2023/10/04 11:07:52;;;;;;;5.82;2.25;;;15.50;99.90;;;;;;5032815;28;20606;-84
2023/10/04 11:10:20;;;;;;;8.32;2.63;;;15.50;99.90;;;;;;5033352;28;20029;-84
2023/10/04 11:12:46;;;;;;;10.88;2.47;;;15.40;99.90;;;;;;5033759;28;20124;-84
2023/10/04 11:15:12;;;;;;;7.88;2.75;;;15.40;99.90;;;;;;5034314;28;20052;-84
2023/10/04 11:17:39;;;;;;;7.88;2.70;;;15.30;99.90;;;;;;5055518;28;20024;-85
2023/10/04 11:20:17;;;;;;;9.27;3.08;;;15.30;99.90;;;;;;5035389;28;20021;-83
2023/10/04 11:22:46;;;;;;;9.80;2.85;;;15.30;99.90;;;;;;5031860;28;20058;-84
2023/10/04 11:25:16;;;;;;;10.23;2.53;;;15.20;99.90;;;;;;5034882;28;20029;-84
2023/10/04 11:27:43;;;;;;;7.97;2.63;;;15.30;99.90;;;;;;5032629;28;20048;-85
2023/10/04 11:30:11;;;;;;;7.82;2.53;;;15.40;99.90;;;;;;5035431;28;20079;-83
2023/10/04 11:32:46;;;;;;;6.30;2.30;;;15.40;99.90;;;;;;5031680;28;20112;-85
2023/10/04 11:35:17;;;;;;;8.25;2.53;;;15.40;99.90;;;;;;5033570;28;20021;-83
2023/10/04 11:37:47;;;;;;;10.10;2.88;;;15.40;99.90;;;;;;5034274;28;20029;-83
2023/10/04 11:40:16;;;;;;;8.13;2.20;;;15.60;99.90;;;;;;5033034;28;20071;-86
2023/10/04 11:42:42;;;;;;;10.27;2.75;;;15.70;99.90;;;;;;5034195;28;20108;-84
2023/10/04 11:45:21;;;;;;;11.63;2.83;;;15.70;99.90;;;;;;5049886;28;20025;-85
2023/10/04 11:48:08;;;;;;;8.68;2.38;;;15.60;99.90;;;;;;5051367;28;20048;-85
2023/10/04 11:50:49;;;;;;;8.27;2.58;;;15.60;99.90;;;;;;5032652;28;20029;-85
2023/10/04 11:53:30;;;;;;;8.93;2.40;;;15.70;99.90;;;;;;5033675;28;20485;-83
2023/10/04 11:56:13;;;;;;;7.45;2.58;;;15.80;99.90;;;;;;5035647;28;20455;-85
2023/10/04 11:58:47;;;;;;;6.20;2.60;;;15.80;99.90;;;;;;5032545;28;20013;-84
2023/10/04 12:01:20;;;;;;;7.93;2.95;;;15.90;99.90;;;;;;5031427;28;20507;-84
2023/10/04 12:03:46;;;;;;;12.88;3.90;;;15.90;99.90;;;;;;5038236;28;20040;-83
2023/10/04 12:06:14;;;;;;;8.88;2.85;;;16.00;99.90;;;;;;5032155;28;20032;-83
2023/10/04 12:08:40;;;;;;;6.20;2.90;;;16.00;99.90;;;;;;5050711;28;20516;-84
2023/10/04 12:11:13;;;;;;;9.23;2.80;;;16.10;99.90;;;;;;5033086;28;20024;-83
2023/10/04 12:13:43;;;;;;;6.70;2.40;;;16.20;99.90;;;;;;5049842;28;20087;-83
2023/10/04 12:16:09;;;;;;;9.95;2.55;;;16.30;99.90;;;;;;5034492;28;20640;-85
2023/10/04 12:18:36;;;;;;;5.85;2.30;;;16.30;99.90;;;;;;5032087;28;20028;-84
2023/10/04 12:21:01;;;;;;;5.57;2.78;;;16.30;99.90;;;;;;5031401;28;20033;-83
2023/10/04 12:23:27;;;;;;;8.80;2.90;;;16.30;99.90;;;;;;5032213;28;20020;-87
2023/10/04 12:25:53;;;;;;;11.00;3.22;;;16.20;99.90;;;;;;5035849;28;20021;-84
2023/10/04 12:28:20;;;;;;;9.82;3.33;;;16.30;99.90;;;;;;5052089;28;20013;-85
2023/10/04 12:30:48;;;;;;;6.95;3.25;;;16.20;99.90;;;;;;5031482;28;20025;-84
2023/10/04 12:33:13;;;;;;;9.07;3.03;;;16.30;99.90;;;;;;5032071;28;20079;-83
2023/10/04 12:35:39;;;;;;;8.63;3.00;;;16.40;99.90;;;;;;5034264;28;20444;-84
2023/10/04 12:38:05;;;;;;;9.77;3.00;;;16.40;99.90;;;;;;5034624;28;20069;-85
2023/10/04 12:40:30;;;;;;;9.70;3.20;;;16.50;99.90;;;;;;5034199;28;20028;-84
2023/10/04 12:42:56;;;;;;;9.77;3.22;;;16.50;99.90;;;;;;5033917;28;20045;-83
2023/10/04 12:45:23;;;;;;;8.20;3.15;;;16.40;99.90;;;;;;5033787;28;20055;-83
2023/10/04 12:47:48;;;;;;;10.43;3.35;;;16.40;99.90;;;;;;5034729;28;20338;-84
2023/10/04 12:50:15;;;;;;;7.60;2.88;;;16.40;99.90;;;;;;5032948;28;20025;-83
2023/10/04 12:52:41;;;;;;;9.13;3.63;;;16.40;99.90;;;;;;5034136;28;20032;-83
2023/10/04 12:55:08;;;;;;;8.27;3.45;;;16.30;99.90;;;;;;5035364;28;20021;-83
2023/10/04 12:57:34;;;;;;;8.50;3.15;;;16.30;99.90;;;;;;5050345;28;20575;-83
2023/10/04 13:00:01;;;;;;;6.32;2.97;;;16.30;99.90;;;;;;5052512;28;20020;-82